createdAt,value
2019-02-03T00:04:08.079Z,97
2019-02-03T00:09:07.807Z,97
2019-02-03T00:14:08.396Z,97
2019-02-03T00:19:08.118Z,97
2019-02-03T00:24:07.893Z,97
2019-02-03T00:29:07.748Z,97
2019-02-03T00:34:08.421Z,97
2019-02-03T00:39:08.218Z,97
2019-02-03T00:44:08.335Z,97
2019-02-03T00:49:08.273Z,97
2019-02-03T00:54:07.937Z,97
2019-02-03T00:59:08.566Z,97
2019-02-03T01:04:08.293Z,97
2019-02-03T01:09:08.638Z,97
2019-02-03T01:14:07.827Z,97
2019-02-03T01:19:08.523Z,97
2019-02-03T01:24:08.083Z,97
2019-02-03T01:29:08.692Z,97
2019-02-03T01:34:08.554Z,97
2019-02-03T01:39:08.185Z,97
2019-02-03T01:44:08.393Z,97
2019-02-03T01:49:08.024Z,97
2019-02-03T01:54:08.212Z,97
2019-02-03T01:59:08.538Z,97
2019-02-03T02:04:08.439Z,97
2019-02-03T02:09:08.216Z,97
2019-02-03T02:14:07.894Z,97
2019-02-03T02:19:08.403Z,97
2019-02-03T02:24:08.042Z,96
2019-02-03T02:29:08.607Z,96
2019-02-03T02:34:08.403Z,96
2019-02-03T02:39:08.106Z,96
2019-02-03T02:44:08.312Z,96
2019-02-03T02:49:07.939Z,96
2019-02-03T02:54:08.321Z,96
2019-02-03T02:59:08.297Z,96
2019-02-03T03:04:08.155Z,96
2019-02-03T03:09:08.074Z,96
2019-02-03T03:14:08.639Z,96
2019-02-03T03:19:08.222Z,96
2019-02-03T03:24:08.291Z,96
2019-02-03T03:29:07.915Z,96
2019-02-03T03:34:08.558Z,96
2019-02-03T03:39:08.242Z,96
2019-02-03T03:44:07.883Z,96
2019-02-03T03:49:08.607Z,96
2019-02-03T03:54:08.264Z,96
2019-02-03T03:59:07.937Z,96
2019-02-03T04:04:08.349Z,96
2019-02-03T04:09:08.172Z,96
2019-02-03T04:14:07.809Z,96
2019-02-03T04:19:08.469Z,96
2019-02-03T04:24:08.117Z,96
2019-02-03T04:29:12.021Z,96
2019-02-03T04:34:08.029Z,96
2019-02-03T04:39:08.706Z,96
2019-02-03T04:44:08.732Z,96
2019-02-03T04:49:08.575Z,96
2019-02-03T04:54:08.416Z,96
2019-02-03T04:59:08.056Z,96
2019-02-03T05:04:08.032Z,96
2019-02-03T05:09:11.178Z,96
2019-02-03T05:14:08.216Z,96
2019-02-03T05:19:07.942Z,96
2019-02-03T05:24:08.151Z,96
2019-02-03T05:29:08.289Z,96
2019-02-03T05:34:08.201Z,96
2019-02-03T05:39:08.852Z,96
2019-02-03T05:44:08.494Z,96
2019-02-03T05:49:08.246Z,96
2019-02-03T05:54:08.199Z,96
2019-02-03T05:59:08.821Z,96
2019-02-03T06:04:08.533Z,96
2019-02-03T06:09:08.177Z,96
2019-02-03T06:14:07.987Z,96
2019-02-03T06:19:08.518Z,96
2019-02-03T06:24:08.133Z,96
2019-02-03T06:29:08.807Z,96
2019-02-03T06:34:08.539Z,96
2019-02-03T06:39:08.179Z,96
2019-02-03T06:44:08.807Z,96
2019-02-03T06:49:08.466Z,96
2019-02-03T06:54:08.249Z,96
2019-02-03T06:59:08.909Z,96
2019-02-03T07:04:08.272Z,96
2019-02-03T07:09:08.157Z,96
2019-02-03T07:14:08.737Z,96
2019-02-03T07:19:08.337Z,96
2019-02-03T07:24:09.002Z,96
2019-02-03T07:29:08.580Z,96
2019-02-03T07:34:08.254Z,96
2019-02-03T07:39:08.812Z,96
2019-02-03T07:44:08.456Z,96
2019-02-03T07:49:08.384Z,96
2019-02-03T07:54:09.067Z,96
2019-02-03T07:59:08.696Z,96
2019-02-03T08:04:08.436Z,96
2019-02-03T08:09:08.247Z,96
2019-02-03T08:14:08.484Z,96
2019-02-03T08:19:08.091Z,96
2019-02-03T08:24:08.759Z,96
2019-02-03T08:29:08.723Z,96
2019-02-03T08:34:08.441Z,96
2019-02-03T08:39:08.226Z,96
2019-02-03T08:44:08.485Z,96
2019-02-03T08:49:08.886Z,96
2019-02-03T08:54:08.809Z,96
2019-02-03T08:59:08.436Z,96
2019-02-03T09:04:09.204Z,96
2019-02-03T09:09:08.993Z,96
2019-02-03T09:14:08.947Z,95
2019-02-03T09:19:08.533Z,95
2019-02-03T09:24:09.112Z,95
2019-02-03T09:29:08.694Z,95
2019-02-03T09:34:08.435Z,95
2019-02-03T09:39:09.068Z,95
2019-02-03T09:44:08.708Z,95
2019-02-03T09:49:08.742Z,95
2019-02-03T09:54:08.468Z,94
2019-02-03T09:59:09.214Z,94
2019-02-03T10:04:09.314Z,94
2019-02-03T10:09:08.357Z,94
2019-02-03T10:14:08.493Z,93
2019-02-03T10:19:09.247Z,93
2019-02-03T10:24:08.967Z,92
2019-02-03T10:29:08.999Z,92
2019-02-03T10:34:08.814Z,90
2019-02-03T10:39:08.533Z,90
2019-02-03T10:44:09.132Z,87
2019-02-03T10:49:08.703Z,87
2019-02-03T10:54:08.704Z,85
2019-02-03T10:59:08.361Z,85
2019-02-03T11:04:09.391Z,84
2019-02-03T11:09:08.809Z,84
2019-02-03T11:14:08.533Z,81
2019-02-03T11:19:09.307Z,81
2019-02-03T11:24:08.998Z,80
2019-02-03T11:29:08.692Z,80
2019-02-03T11:34:09.384Z,79
2019-02-03T11:39:09.015Z,79
2019-02-03T11:44:08.755Z,78
2019-02-03T11:49:08.605Z,78
2019-02-03T11:54:08.756Z,76
2019-02-03T11:59:08.376Z,76
2019-02-03T12:04:09.107Z,75
2019-02-03T12:09:09.234Z,75
2019-02-03T12:14:08.970Z,74
2019-02-03T12:19:08.662Z,74
2019-02-03T12:24:09.283Z,74
2019-02-03T12:29:08.935Z,74
2019-02-03T12:34:08.637Z,76
2019-02-03T12:39:08.823Z,76
2019-02-03T12:44:08.465Z,75
2019-02-03T12:49:09.113Z,75
2019-02-03T12:54:08.826Z,72
2019-02-03T12:59:08.596Z,72
2019-02-03T13:04:09.438Z,70
2019-02-03T13:09:09.179Z,70
2019-02-03T13:14:09.072Z,69
2019-02-03T13:19:08.703Z,69
2019-02-03T13:24:09.415Z,69
2019-02-03T13:29:09.083Z,69
2019-02-03T13:34:08.783Z,68
2019-02-03T13:39:08.634Z,68
2019-02-03T13:44:09.317Z,69
2019-02-03T13:49:09.115Z,69
2019-02-03T13:54:09.050Z,70
2019-02-03T13:59:08.699Z,70
2019-02-03T14:04:08.804Z,71
2019-02-03T14:09:08.694Z,71
2019-02-03T14:14:09.368Z,71
2019-02-03T14:19:11.069Z,71
2019-02-03T14:24:08.978Z,71
2019-02-03T14:29:08.891Z,71
2019-02-03T14:34:09.011Z,72
2019-02-03T14:39:08.661Z,72
2019-02-03T14:44:09.320Z,72
2019-02-03T14:49:09.086Z,72
2019-02-03T14:54:08.727Z,72
2019-02-03T14:59:09.433Z,72
2019-02-03T15:04:08.766Z,73
2019-02-03T15:09:09.626Z,73
2019-02-03T15:14:09.413Z,74
2019-02-03T15:19:09.145Z,74
2019-02-03T15:24:15.917Z,76
2019-02-03T15:29:09.244Z,76
2019-02-03T15:34:11.596Z,77
2019-02-03T15:39:09.497Z,77
2019-02-03T15:44:09.123Z,78
2019-02-03T15:49:08.728Z,78
2019-02-03T15:54:09.366Z,79
2019-02-03T15:59:09.124Z,79
2019-02-03T16:04:08.810Z,80
2019-02-03T16:09:09.611Z,80
2019-02-03T16:14:09.260Z,80
2019-02-03T16:19:08.905Z,80
2019-02-03T16:24:09.521Z,81
2019-02-03T16:29:09.104Z,81
2019-02-03T16:34:08.830Z,82
2019-02-03T16:39:09.451Z,82
2019-02-03T16:44:09.148Z,83
2019-02-03T16:49:08.756Z,83
2019-02-03T16:54:09.409Z,83
2019-02-03T16:59:08.991Z,83
2019-02-03T17:04:08.765Z,83
2019-02-03T17:09:09.501Z,83
2019-02-03T17:14:08.951Z,83
2019-02-03T17:19:09.638Z,83
2019-02-03T17:24:09.275Z,84
2019-02-03T17:29:08.908Z,84
2019-02-03T17:34:09.010Z,85
2019-02-03T17:39:09.691Z,85
2019-02-03T17:44:13.316Z,86
2019-02-03T17:49:08.969Z,86
2019-02-03T17:54:09.317Z,87
2019-02-03T17:59:08.984Z,87
2019-02-03T18:04:09.732Z,88
2019-02-03T18:09:09.595Z,88
2019-02-03T18:14:08.861Z,89
2019-02-03T18:19:09.597Z,89
2019-02-03T18:24:09.211Z,89
2019-02-03T18:29:08.882Z,89
2019-02-03T18:34:09.629Z,89
2019-02-03T18:39:09.272Z,89
2019-02-03T18:44:08.939Z,89
2019-02-03T18:49:09.386Z,89
2019-02-03T18:54:09.057Z,89
2019-02-03T18:59:09.752Z,89
2019-02-03T19:04:09.909Z,89
2019-02-03T19:09:09.745Z,89
2019-02-03T19:14:09.177Z,91
2019-02-03T19:19:09.100Z,91
2019-02-03T19:24:09.839Z,92
2019-02-03T19:29:09.538Z,92
2019-02-03T19:34:09.348Z,92
2019-02-03T19:39:09.047Z,92
2019-02-03T19:44:09.757Z,92
2019-02-03T19:49:09.396Z,92
2019-02-03T19:54:09.050Z,92
2019-02-03T19:59:09.775Z,92
2019-02-03T20:04:09.586Z,92
2019-02-03T20:09:09.378Z,92
2019-02-03T20:14:09.016Z,92
2019-02-03T20:19:09.676Z,92
2019-02-03T20:24:09.283Z,92
2019-02-03T20:29:09.151Z,92
2019-02-03T20:34:09.891Z,92
2019-02-03T20:39:09.524Z,92
2019-02-03T20:44:09.215Z,92
2019-02-03T20:49:09.989Z,92
2019-02-03T20:54:09.665Z,92
2019-02-03T20:59:09.489Z,92
2019-02-03T21:04:09.146Z,92
2019-02-03T21:09:09.042Z,92
2019-02-03T21:14:09.611Z,92
2019-02-03T21:19:09.276Z,92
2019-02-03T21:24:09.987Z,92
2019-02-03T21:29:09.573Z,92
2019-02-03T21:34:09.253Z,92
2019-02-03T21:39:09.923Z,92
2019-02-03T21:44:09.571Z,92
2019-02-03T21:49:09.372Z,92
2019-02-03T21:54:10.001Z,92
2019-02-03T21:59:09.715Z,92
2019-02-03T22:04:09.738Z,92
2019-02-03T22:09:09.422Z,92
2019-02-03T22:14:09.804Z,92
2019-02-03T22:19:09.450Z,92
2019-02-03T22:24:09.255Z,92
2019-02-03T22:29:09.948Z,92
2019-02-03T22:34:09.853Z,92
2019-02-03T22:39:09.546Z,92
2019-02-03T22:44:09.265Z,93
2019-02-03T22:49:09.900Z,93
2019-02-03T22:54:09.552Z,92
2019-02-03T22:59:09.134Z,92
2019-02-03T23:04:09.661Z,93
2019-02-03T23:09:09.812Z,93
2019-02-03T23:14:09.684Z,93
2019-02-03T23:19:09.485Z,93
2019-02-03T23:24:09.241Z,93
2019-02-03T23:29:09.899Z,93
2019-02-03T23:34:09.595Z,93
2019-02-03T23:39:09.367Z,93
2019-02-03T23:44:10.058Z,93
2019-02-03T23:49:09.762Z,93
2019-02-03T23:54:09.700Z,93
2019-02-03T23:59:09.398Z,93
